Time;durP1;ratioP1;P1;durP2;ratioP2;P2;SDS_P1;SDS_P2;PMS_P1;PMS_P2;Temp;Humidity;BMP_temperature;BMP_pressure;BME280_temperature;BME280_humidity;BME280_pressure;Samples;Min_cycle;Max_cycle;Signal;HPM_P1;HPM_P2
2021/05/10 00:01:29;;;;;;;4.13;3.47;;;;;;;;;;6184858;23;20068;-61
2021/05/10 00:03:55;;;;;;;4.20;3.40;;;;;;;;;;6184780;23;20025;-61
2021/05/10 00:06:22;;;;;;;4.90;3.93;;;;;;;;;;6184851;23;20015;-61
2021/05/10 00:08:49;;;;;;;5.47;3.77;;;;;;;;;;6185087;23;20001;-62
2021/05/10 00:11:16;;;;;;;5.43;3.70;;;;;;;;;;6186817;23;20333;-62
2021/05/10 00:13:46;;;;;;;6.33;4.03;;;;;;;;;;6186732;23;20029;-61
2021/05/10 00:16:13;;;;;;;6.90;4.80;;;;;;;;;;6188045;23;20036;-62
2021/05/10 00:18:40;;;;;;;8.37;4.37;;;;;;;;;;6186827;23;20009;-61
2021/05/10 00:21:07;;;;;;;5.23;4.33;;;;;;;;;;6186608;23;20024;-61
2021/05/10 00:23:34;;;;;;;6.53;4.40;;;;;;;;;;6186659;23;20047;-61
2021/05/10 00:26:01;;;;;;;5.50;3.80;;;;;;;;;;6187600;23;20011;-61
2021/05/10 00:28:27;;;;;;;5.67;4.20;;;;;;;;;;6186663;23;20381;-61
2021/05/10 00:30:54;;;;;;;5.40;4.20;;;;;;;;;;6186630;23;20028;-61
2021/05/10 00:33:21;;;;;;;7.10;4.37;;;;;;;;;;6186462;23;20008;-61
2021/05/10 00:35:48;;;;;;;5.60;4.73;;;;;;;;;;6186709;23;20012;-62
2021/05/10 00:38:15;;;;;;;6.73;5.17;;;;;;;;;;6186587;23;20306;-61
2021/05/10 00:40:41;;;;;;;5.77;4.07;;;;;;;;;;6186566;23;20035;-61
2021/05/10 00:43:08;;;;;;;6.57;4.63;;;;;;;;;;6160189;23;20005;-61
2021/05/10 00:45:35;;;;;;;7.20;4.40;;;;;;;;;;6186680;23;20001;-61
2021/05/10 00:48:02;;;;;;;6.60;4.60;;;;;;;;;;6186625;23;20089;-61
2021/05/10 00:50:29;;;;;;;5.13;4.33;;;;;;;;;;6186761;23;20009;-62
2021/05/10 00:52:56;;;;;;;7.30;4.60;;;;;;;;;;6186436;23;20361;-61
2021/05/10 00:55:22;;;;;;;6.37;4.83;;;;;;;;;;6186559;23;20432;-61
2021/05/10 00:57:54;;;;;;;5.60;4.13;;;;;;;;;;6186533;23;20008;-61
2021/05/10 01:00:22;;;;;;;7.47;4.77;;;;;;;;;;6187171;23;20290;-62
2021/05/10 01:02:49;;;;;;;7.47;4.73;;;;;;;;;;6186359;23;20009;-61
2021/05/10 01:05:17;;;;;;;5.53;4.63;;;;;;;;;;6186244;23;20280;-62
2021/05/10 01:07:44;;;;;;;4.60;3.70;;;;;;;;;;6186440;23;20024;-61
2021/05/10 01:10:13;;;;;;;8.07;5.30;;;;;;;;;;6186117;23;20005;-61
2021/05/10 01:12:40;;;;;;;6.67;5.50;;;;;;;;;;6186038;23;20031;-61
2021/05/10 01:15:09;;;;;;;6.80;5.03;;;;;;;;;;6186143;23;20080;-60
2021/05/10 01:17:36;;;;;;;10.27;6.67;;;;;;;;;;6187569;23;20051;-59
2021/05/10 01:20:05;;;;;;;14.73;6.07;;;;;;;;;;6186253;23;20008;-61
2021/05/10 01:22:52;;;;;;;7.03;5.17;;;;;;;;;;6185890;23;20001;-61
2021/05/10 01:25:23;;;;;;;9.50;5.30;;;;;;;;;;6186002;23;20420;-61
2021/05/10 01:27:51;;;;;;;6.93;5.00;;;;;;;;;;6186051;23;20005;-61
2021/05/10 01:30:27;;;;;;;8.07;5.53;;;;;;;;;;6186042;23;20012;-61
2021/05/10 01:32:55;;;;;;;10.63;6.40;;;;;;;;;;6186311;23;20008;-61
2021/05/10 01:35:23;;;;;;;12.30;8.97;;;;;;;;;;6185991;23;20036;-61
2021/05/10 01:37:50;;;;;;;17.57;10.33;;;;;;;;;;6185981;23;20001;-60
2021/05/10 01:40:17;;;;;;;13.90;11.27;;;;;;;;;;6186002;23;20333;-61
2021/05/10 01:42:44;;;;;;;14.87;9.93;;;;;;;;;;6186157;23;20008;-60
2021/05/10 01:45:11;;;;;;;12.70;10.07;;;;;;;;;;6186045;23;20062;-60
2021/05/10 01:47:38;;;;;;;11.60;9.20;;;;;;;;;;6186065;23;20001;-60
2021/05/10 01:50:15;;;;;;;12.30;10.20;;;;;;;;;;6186276;23;20005;-60
2021/05/10 01:52:42;;;;;;;11.83;9.47;;;;;;;;;;6186247;23;20068;-60
2021/05/10 01:55:09;;;;;;;14.07;10.50;;;;;;;;;;6186070;23;20008;-60
2021/05/10 01:57:36;;;;;;;12.33;9.47;;;;;;;;;;6185912;23;20005;-60
2021/05/10 02:00:06;;;;;;;17.33;9.57;;;;;;;;;;6185661;23;20140;-60
2021/05/10 02:02:33;;;;;;;12.20;9.43;;;;;;;;;;6185810;23;20298;-60
2021/05/10 02:05:06;;;;;;;12.63;9.47;;;;;;;;;;6185911;23;20429;-60
2021/05/10 02:07:49;;;;;;;13.00;10.60;;;;;;;;;;6185644;23;20022;-60
2021/05/10 02:10:18;;;;;;;13.27;10.37;;;;;;;;;;6185743;23;20009;-60
2021/05/10 02:12:54;;;;;;;14.07;10.83;;;;;;;;;;6185565;23;20008;-60
2021/05/10 02:15:22;;;;;;;13.03;11.07;;;;;;;;;;6185771;23;20015;-60
2021/05/10 02:17:49;;;;;;;16.73;11.37;;;;;;;;;;6186833;22;20024;-60
2021/05/10 02:20:16;;;;;;;13.27;10.63;;;;;;;;;;6186367;23;20013;-60
2021/05/10 02:22:49;;;;;;;16.63;11.47;;;;;;;;;;6185426;23;20059;-59
2021/05/10 02:25:23;;;;;;;15.03;11.27;;;;;;;;;;6185546;23;20001;-60
2021/05/10 02:27:50;;;;;;;14.88;11.23;;;;;;;;;;6185625;23;20448;-60
2021/05/10 02:30:18;;;;;;;14.13;10.60;;;;;;;;;;6185578;23;20020;-60
2021/05/10 02:32:45;;;;;;;12.77;10.60;;;;;;;;;;6185497;23;20376;-60
2021/05/10 02:35:12;;;;;;;12.97;10.43;;;;;;;;;;6185499;23;20005;-60
2021/05/10 02:37:39;;;;;;;11.23;9.40;;;;;;;;;;6185523;23;20383;-60
2021/05/10 02:40:07;;;;;;;14.63;10.07;;;;;;;;;;6185548;23;20013;-60
2021/05/10 02:42:34;;;;;;;12.30;10.37;;;;;;;;;;6185390;23;20337;-60
2021/05/10 02:45:01;;;;;;;16.77;11.27;;;;;;;;;;6185558;23;20000;-60
2021/05/10 02:47:28;;;;;;;14.13;10.20;;;;;;;;;;6185378;23;20013;-60
2021/05/10 02:49:55;;;;;;;12.17;10.70;;;;;;;;;;6185560;23;20321;-60
2021/05/10 02:52:22;;;;;;;15.13;10.80;;;;;;;;;;6185325;23;20009;-60
2021/05/10 02:54:49;;;;;;;16.80;11.87;;;;;;;;;;6185471;23;20001;-60
2021/05/10 02:57:17;;;;;;;14.73;10.90;;;;;;;;;;6185380;23;20016;-60
2021/05/10 02:59:44;;;;;;;13.40;10.80;;;;;;;;;;6185329;23;20005;-60
2021/05/10 03:02:11;;;;;;;13.27;11.17;;;;;;;;;;6185159;23;20005;-60
2021/05/10 03:04:37;;;;;;;13.47;11.40;;;;;;;;;;6185272;23;20036;-60
2021/05/10 03:07:04;;;;;;;13.37;10.67;;;;;;;;;;6185159;23;20379;-60
2021/05/10 03:09:32;;;;;;;14.97;10.83;;;;;;;;;;6185395;23;20068;-60
2021/05/10 03:11:59;;;;;;;15.47;12.03;;;;;;;;;;6185145;23;20076;-60
2021/05/10 03:14:35;;;;;;;17.50;11.97;;;;;;;;;;6185139;23;20041;-60
2021/05/10 03:17:15;;;;;;;13.23;11.40;;;;;;;;;;6186252;23;20084;-60
2021/05/10 03:19:42;;;;;;;15.30;11.03;;;;;;;;;;6185136;23;20016;-60
2021/05/10 03:22:08;;;;;;;13.70;10.13;;;;;;;;;;6185043;23;20033;-60
2021/05/10 03:24:35;;;;;;;17.37;10.57;;;;;;;;;;6185092;23;20055;-60
2021/05/10 03:27:02;;;;;;;14.57;11.50;;;;;;;;;;6185409;23;20333;-60
2021/05/10 03:29:29;;;;;;;14.13;10.97;;;;;;;;;;6185220;23;20375;-61
2021/05/10 03:31:55;;;;;;;13.63;11.00;;;;;;;;;;6184967;23;20054;-60
2021/05/10 03:34:22;;;;;;;13.07;10.80;;;;;;;;;;6185087;23;20009;-60
2021/05/10 03:36:49;;;;;;;11.90;10.13;;;;;;;;;;6185309;23;20445;-60
2021/05/10 03:39:16;;;;;;;12.43;10.80;;;;;;;;;;6185209;23;20052;-60
2021/05/10 03:41:43;;;;;;;11.50;10.03;;;;;;;;;;6184908;23;20023;-60
2021/05/10 03:44:09;;;;;;;12.53;10.50;;;;;;;;;;6185386;23;20329;-60
2021/05/10 03:46:36;;;;;;;11.17;9.37;;;;;;;;;;6187163;23;20009;-60
2021/05/10 03:49:03;;;;;;;15.40;11.40;;;;;;;;;;6187076;23;20005;-60
2021/05/10 03:51:30;;;;;;;11.47;9.93;;;;;;;;;;6186982;23;20332;-60
2021/05/10 03:53:57;;;;;;;14.00;9.57;;;;;;;;;;6187105;23;20075;-60
2021/05/10 03:56:23;;;;;;;10.10;8.90;;;;;;;;;;6186922;23;20009;-60
2021/05/10 03:58:50;;;;;;;11.90;9.07;;;;;;;;;;6186865;23;20004;-61
2021/05/10 04:01:17;;;;;;;11.80;9.10;;;;;;;;;;6187038;23;20009;-60
2021/05/10 04:03:59;;;;;;;10.30;8.80;;;;;;;;;;6187086;23;20001;-60
2021/05/10 04:06:42;;;;;;;14.00;11.07;;;;;;;;;;6187000;23;20001;-60
2021/05/10 04:14:38;;;;;;;;;;;;;;;;;;6187564;23;20067;-60
2021/05/10 04:17:05;;;;;;;10.23;7.83;;;;;;;;;;6153825;23;19967;-60
2021/05/10 04:19:32;;;;;;;15.07;9.00;;;;;;;;;;6156877;23;20085;-60
2021/05/10 04:21:59;;;;;;;9.87;8.10;;;;;;;;;;6156985;23;20037;-60
2021/05/10 04:24:26;;;;;;;10.23;8.47;;;;;;;;;;6156962;23;20303;-60
2021/05/10 04:26:52;;;;;;;16.33;9.30;;;;;;;;;;6157068;23;20025;-60
2021/05/10 04:29:19;;;;;;;9.47;7.97;;;;;;;;;;6157020;23;19997;-60
2021/05/10 04:31:46;;;;;;;14.57;9.07;;;;;;;;;;6156783;23;19997;-60
2021/05/10 04:34:13;;;;;;;10.30;8.33;;;;;;;;;;6156927;23;20006;-60
2021/05/10 04:36:39;;;;;;;10.50;8.70;;;;;;;;;;6156791;23;20013;-60
2021/05/10 04:39:06;;;;;;;12.20;8.70;;;;;;;;;;6156766;23;20005;-60
2021/05/10 04:41:33;;;;;;;11.37;8.30;;;;;;;;;;6156686;23;20322;-60
2021/05/10 04:44:00;;;;;;;13.73;8.57;;;;;;;;;;6156999;23;20002;-60
2021/05/10 04:46:27;;;;;;;12.20;9.53;;;;;;;;;;6156994;23;20076;-60
2021/05/10 04:48:53;;;;;;;10.40;8.00;;;;;;;;;;6156805;23;20029;-60
2021/05/10 04:51:20;;;;;;;11.90;8.57;;;;;;;;;;6156739;23;20002;-60
2021/05/10 04:53:47;;;;;;;13.33;8.93;;;;;;;;;;6156682;23;20052;-60
2021/05/10 04:56:14;;;;;;;11.23;9.37;;;;;;;;;;6156083;23;20017;-60
2021/05/10 04:58:42;;;;;;;11.63;9.33;;;;;;;;;;6156719;23;20009;-60
2021/05/10 05:01:09;;;;;;;11.60;8.07;;;;;;;;;;6156500;23;20025;-60
2021/05/10 05:03:35;;;;;;;14.60;9.70;;;;;;;;;;6156565;23;20047;-60
2021/05/10 05:06:02;;;;;;;11.73;9.87;;;;;;;;;;6156620;23;20002;-60
2021/05/10 05:08:29;;;;;;;10.03;8.30;;;;;;;;;;6156556;23;20333;-60
2021/05/10 05:10:56;;;;;;;11.10;8.40;;;;;;;;;;6130518;23;20422;-60
2021/05/10 05:13:24;;;;;;;11.73;8.70;;;;;;;;;;6156466;23;20328;-60
2021/05/10 05:15:51;;;;;;;14.17;8.90;;;;;;;;;;6156973;23;20002;-60
2021/05/10 05:18:18;;;;;;;10.73;8.43;;;;;;;;;;6180266;23;20083;-60
2021/05/10 05:20:45;;;;;;;10.23;8.20;;;;;;;;;;6186254;23;20016;-60
2021/05/10 05:23:22;;;;;;;11.43;8.10;;;;;;;;;;6186328;23;20325;-60
2021/05/10 05:25:54;;;;;;;10.67;8.10;;;;;;;;;;6186340;23;20009;-60
2021/05/10 05:28:20;;;;;;;10.43;7.10;;;;;;;;;;6186160;23;20421;-60
2021/05/10 05:30:47;;;;;;;9.43;7.90;;;;;;;;;;6186151;23;20012;-60
2021/05/10 05:33:14;;;;;;;11.80;9.20;;;;;;;;;;6186060;23;20004;-60
2021/05/10 05:35:41;;;;;;;12.33;9.13;;;;;;;;;;6186241;23;20028;-60
2021/05/10 05:38:10;;;;;;;15.57;9.47;;;;;;;;;;6186179;23;20010;-60
2021/05/10 05:40:38;;;;;;;12.13;9.53;;;;;;;;;;6186063;23;20013;-60
2021/05/10 05:43:06;;;;;;;12.43;10.00;;;;;;;;;;6186203;23;20008;-60
2021/05/10 05:45:33;;;;;;;12.47;9.80;;;;;;;;;;6186040;23;20005;-60
2021/05/10 05:48:00;;;;;;;10.07;8.97;;;;;;;;;;6185894;23;20320;-60
2021/05/10 05:50:27;;;;;;;11.93;8.70;;;;;;;;;;6185907;23;20059;-60
2021/05/10 05:52:54;;;;;;;12.03;9.60;;;;;;;;;;6186079;23;20001;-60
2021/05/10 05:55:21;;;;;;;13.10;8.23;;;;;;;;;;6185866;23;20005;-60
2021/05/10 05:58:01;;;;;;;12.63;8.73;;;;;;;;;;6185872;23;20012;-60
2021/05/10 06:00:29;;;;;;;8.73;7.63;;;;;;;;;;6185693;23;20017;-60
2021/05/10 06:02:55;;;;;;;19.03;7.47;;;;;;;;;;6185951;23;20004;-60
2021/05/10 06:05:22;;;;;;;10.47;8.53;;;;;;;;;;6185644;23;20336;-60
2021/05/10 06:07:49;;;;;;;12.13;8.17;;;;;;;;;;6185552;23;20005;-60
2021/05/10 06:10:24;;;;;;;10.93;8.03;;;;;;;;;;6185936;23;20007;-60
2021/05/10 06:12:52;;;;;;;11.88;9.05;;;;;;;;;;6185658;23;20072;-60
2021/05/10 06:15:19;;;;;;;12.53;9.80;;;;;;;;;;6185836;23;20039;-60
2021/05/10 06:17:47;;;;;;;9.93;8.07;;;;;;;;;;6186751;23;20013;-60
2021/05/10 06:20:14;;;;;;;10.30;7.77;;;;;;;;;;6185455;23;20096;-60
2021/05/10 06:22:41;;;;;;;11.27;8.67;;;;;;;;;;6185742;23;20004;-60
2021/05/10 06:25:09;;;;;;;10.93;9.17;;;;;;;;;;6185512;23;20209;-60
2021/05/10 06:27:36;;;;;;;11.00;8.23;;;;;;;;;;6185782;23;20025;-60
2021/05/10 06:30:04;;;;;;;14.60;10.30;;;;;;;;;;6185698;23;20008;-59
2021/05/10 06:32:31;;;;;;;13.70;10.90;;;;;;;;;;6185498;23;20005;-60
2021/05/10 06:34:57;;;;;;;13.73;10.50;;;;;;;;;;6186012;23;20012;-60
2021/05/10 06:37:28;;;;;;;13.43;10.57;;;;;;;;;;6185481;23;20105;-60
2021/05/10 06:39:56;;;;;;;11.53;8.90;;;;;;;;;;6185442;23;20016;-60
2021/05/10 06:42:23;;;;;;;12.93;9.77;;;;;;;;;;6185510;23;20009;-60
2021/05/10 06:44:50;;;;;;;12.63;9.50;;;;;;;;;;6185500;23;20014;-59
2021/05/10 06:47:16;;;;;;;13.80;10.10;;;;;;;;;;6185342;23;20006;-60
2021/05/10 06:49:43;;;;;;;11.53;9.50;;;;;;;;;;6185315;23;20095;-59
2021/05/10 06:52:10;;;;;;;10.30;8.30;;;;;;;;;;6185431;23;20001;-59
2021/05/10 06:54:38;;;;;;;13.23;8.83;;;;;;;;;;6185195;23;20005;-60
2021/05/10 06:57:04;;;;;;;16.27;8.33;;;;;;;;;;6185465;23;20328;-60
2021/05/10 06:59:31;;;;;;;11.23;8.70;;;;;;;;;;6185201;23;20024;-60
2021/05/10 07:01:58;;;;;;;11.73;8.90;;;;;;;;;;6185287;23;20009;-60
2021/05/10 07:04:25;;;;;;;15.13;10.13;;;;;;;;;;6185477;23;20023;-60
2021/05/10 07:06:51;;;;;;;14.10;10.33;;;;;;;;;;6185314;23;20005;-60
2021/05/10 07:09:18;;;;;;;13.60;9.73;;;;;;;;;;6185244;23;20009;-60
2021/05/10 07:11:45;;;;;;;10.23;8.43;;;;;;;;;;6185285;23;20001;-60
2021/05/10 07:14:12;;;;;;;15.47;8.73;;;;;;;;;;6185144;23;20083;-60
2021/05/10 07:16:39;;;;;;;11.97;8.10;;;;;;;;;;6185261;23;20001;-60
2021/05/10 07:19:05;;;;;;;10.83;8.17;;;;;;;;;;6186184;23;20051;-59
2021/05/10 07:21:32;;;;;;;9.10;7.13;;;;;;;;;;6185205;23;20012;-60
2021/05/10 07:23:59;;;;;;;10.20;9.03;;;;;;;;;;6185136;23;20371;-60
2021/05/10 07:26:26;;;;;;;10.50;8.33;;;;;;;;;;6185517;23;20027;-60
2021/05/10 07:28:53;;;;;;;14.83;9.43;;;;;;;;;;6185327;23;19997;-60
2021/05/10 07:31:19;;;;;;;10.00;8.27;;;;;;;;;;6185160;23;20001;-60
2021/05/10 07:33:46;;;;;;;11.10;8.27;;;;;;;;;;6185137;23;20016;-60
2021/05/10 07:36:13;;;;;;;12.53;8.80;;;;;;;;;;6185248;23;20007;-60
2021/05/10 07:38:40;;;;;;;14.37;9.73;;;;;;;;;;6185450;23;20032;-60
2021/05/10 07:41:06;;;;;;;11.93;9.37;;;;;;;;;;6185090;23;20047;-59
2021/05/10 07:43:33;;;;;;;11.80;9.17;;;;;;;;;;6185041;23;20055;-60
2021/05/10 07:46:00;;;;;;;17.10;10.03;;;;;;;;;;6185035;23;20005;-59
2021/05/10 07:48:27;;;;;;;12.23;9.73;;;;;;;;;;6185083;23;20440;-60
2021/05/10 07:50:54;;;;;;;10.67;8.80;;;;;;;;;;6184982;23;19998;-60
2021/05/10 07:53:20;;;;;;;15.43;10.63;;;;;;;;;;6185068;23;20001;-60
2021/05/10 07:55:49;;;;;;;13.50;9.00;;;;;;;;;;6185021;23;20006;-59
2021/05/10 07:58:20;;;;;;;13.93;10.30;;;;;;;;;;6185098;23;20465;-60
2021/05/10 08:00:48;;;;;;;11.47;8.80;;;;;;;;;;6184796;23;20020;-60
2021/05/10 08:03:17;;;;;;;10.63;8.23;;;;;;;;;;6184851;23;20028;-60
2021/05/10 08:05:44;;;;;;;11.10;8.60;;;;;;;;;;6185231;23;20013;-60
2021/05/10 08:08:15;;;;;;;11.27;8.93;;;;;;;;;;6184951;23;20005;-60
2021/05/10 08:10:42;;;;;;;11.53;9.67;;;;;;;;;;6184876;23;20032;-60
2021/05/10 08:13:10;;;;;;;12.83;8.67;;;;;;;;;;6185043;23;20048;-60
2021/05/10 08:15:36;;;;;;;13.53;9.80;;;;;;;;;;6185118;23;20008;-60
2021/05/10 08:18:03;;;;;;;13.17;10.50;;;;;;;;;;6185864;23;20021;-60
2021/05/10 08:20:30;;;;;;;21.23;10.83;;;;;;;;;;6184859;23;20017;-60
2021/05/10 08:22:57;;;;;;;14.80;10.97;;;;;;;;;;6184847;23;20001;-60
2021/05/10 08:25:24;;;;;;;10.43;9.03;;;;;;;;;;6185023;23;20009;-60
2021/05/10 08:27:51;;;;;;;11.53;8.17;;;;;;;;;;6184776;23;20005;-59
2021/05/10 08:30:18;;;;;;;11.13;8.33;;;;;;;;;;6185504;23;20067;-60
2021/05/10 08:32:45;;;;;;;11.83;9.53;;;;;;;;;;6186623;23;20329;-59
2021/05/10 08:35:12;;;;;;;11.70;9.97;;;;;;;;;;6186797;23;20008;-60
2021/05/10 08:37:39;;;;;;;11.90;9.40;;;;;;;;;;6186501;23;20087;-59
2021/05/10 08:40:07;;;;;;;11.90;8.87;;;;;;;;;;6186458;23;20005;-59
2021/05/10 08:42:33;;;;;;;9.13;7.60;;;;;;;;;;6186689;23;20036;-60
2021/05/10 08:45:00;;;;;;;11.80;9.03;;;;;;;;;;6186757;23;20329;-60
2021/05/10 08:47:35;;;;;;;13.53;8.90;;;;;;;;;;6186482;23;20010;-60
2021/05/10 08:50:03;;;;;;;13.13;9.32;;;;;;;;;;6186478;23;20059;-60
2021/05/10 08:52:29;;;;;;;11.80;9.10;;;;;;;;;;6186623;23;20028;-60
2021/05/10 08:54:56;;;;;;;11.70;9.40;;;;;;;;;;6186426;23;20432;-59
2021/05/10 08:57:23;;;;;;;11.27;8.70;;;;;;;;;;6186400;23;20320;-59
2021/05/10 08:59:50;;;;;;;10.20;8.17;;;;;;;;;;6186160;23;20012;-60
2021/05/10 09:02:16;;;;;;;12.73;9.73;;;;;;;;;;6187224;23;20416;-60
2021/05/10 09:04:44;;;;;;;12.10;8.43;;;;;;;;;;6186509;23;20411;-60
2021/05/10 09:07:14;;;;;;;15.00;9.80;;;;;;;;;;6186194;23;20004;-60
2021/05/10 09:09:50;;;;;;;15.70;11.00;;;;;;;;;;6186397;23;20124;-60
2021/05/10 09:12:19;;;;;;;11.70;9.73;;;;;;;;;;6186364;23;20005;-60
2021/05/10 09:14:46;;;;;;;11.80;9.23;;;;;;;;;;6186599;23;20087;-60
2021/05/10 09:17:13;;;;;;;10.57;8.50;;;;;;;;;;6187305;23;20012;-61
2021/05/10 09:19:44;;;;;;;11.17;9.33;;;;;;;;;;6186195;23;20439;-60
2021/05/10 09:22:12;;;;;;;11.27;8.77;;;;;;;;;;6186282;23;20056;-60
2021/05/10 09:24:50;;;;;;;10.20;8.90;;;;;;;;;;6186403;23;20032;-60
2021/05/10 09:27:24;;;;;;;15.60;10.97;;;;;;;;;;6186209;23;20328;-60
2021/05/10 09:29:51;;;;;;;13.70;9.93;;;;;;;;;;6186170;23;20009;-60
2021/05/10 09:32:31;;;;;;;10.87;9.27;;;;;;;;;;6186057;23;20525;-60
2021/05/10 09:35:14;;;;;;;12.30;8.97;;;;;;;;;;6186168;23;20024;-60
2021/05/10 09:37:41;;;;;;;10.93;8.40;;;;;;;;;;6186387;23;20036;-60
2021/05/10 09:40:08;;;;;;;11.07;8.33;;;;;;;;;;6185933;23;20028;-60
2021/05/10 09:42:54;;;;;;;14.57;10.20;;;;;;;;;;6185655;23;20328;-60
2021/05/10 09:45:31;;;;;;;12.33;9.53;;;;;;;;;;6186362;23;20001;-60
2021/05/10 09:48:29;;;;;;;14.63;9.30;;;;;;;;;;6185924;23;20132;-60
2021/05/10 09:51:01;;;;;;;13.73;10.17;;;;;;;;;;6157265;23;20428;-60
2021/05/10 09:53:35;;;;;;;10.70;8.60;;;;;;;;;;6186094;23;20004;-60
2021/05/10 09:56:02;;;;;;;11.40;9.15;;;;;;;;;;6186289;23;20011;-60
2021/05/10 09:58:40;;;;;;;11.80;10.07;;;;;;;;;;6185867;23;20430;-60
2021/05/10 10:01:07;;;;;;;15.03;10.50;;;;;;;;;;6185728;23;20009;-60
2021/05/10 10:03:37;;;;;;;12.53;10.53;;;;;;;;;;6185804;23;20333;-60
2021/05/10 10:06:05;;;;;;;10.80;9.30;;;;;;;;;;6185650;23;20417;-60
2021/05/10 10:08:32;;;;;;;10.20;8.57;;;;;;;;;;6185919;23;20029;-60
2021/05/10 10:10:59;;;;;;;16.33;10.53;;;;;;;;;;6185576;23;20012;-59
2021/05/10 10:13:27;;;;;;;11.97;9.87;;;;;;;;;;6185892;23;20010;-60
2021/05/10 10:15:57;;;;;;;13.03;10.07;;;;;;;;;;6185637;23;20309;-59
2021/05/10 10:18:24;;;;;;;12.50;9.43;;;;;;;;;;6186777;23;20021;-60
2021/05/10 10:20:51;;;;;;;12.33;9.47;;;;;;;;;;6185402;23;20023;-60
2021/05/10 10:23:19;;;;;;;13.03;8.70;;;;;;;;;;6185589;23;20004;-59
2021/05/10 10:25:46;;;;;;;12.33;9.37;;;;;;;;;;6185654;23;20029;-59
2021/05/10 10:28:15;;;;;;;11.90;8.63;;;;;;;;;;6185482;23;20337;-59
2021/05/10 10:30:44;;;;;;;12.63;8.80;;;;;;;;;;6185630;23;20008;-59
2021/05/10 10:33:12;;;;;;;13.97;9.53;;;;;;;;;;6185456;23;20003;-59
2021/05/10 10:35:43;;;;;;;10.80;9.07;;;;;;;;;;6185467;23;20005;-60
2021/05/10 10:38:11;;;;;;;11.97;8.40;;;;;;;;;;6185662;23;20008;-60
2021/05/10 10:40:37;;;;;;;12.37;8.60;;;;;;;;;;6185365;23;20013;-59
2021/05/10 10:43:24;;;;;;;9.30;7.57;;;;;;;;;;6185499;23;20028;-59
2021/05/10 10:46:26;;;;;;;11.10;8.47;;;;;;;;;;6185711;23;20016;-59
2021/05/10 10:48:55;;;;;;;10.27;7.33;;;;;;;;;;6036879;23;20003;-59
2021/05/10 10:51:22;;;;;;;11.83;8.47;;;;;;;;;;6158924;23;20009;-59
2021/05/10 10:53:55;;;;;;;11.57;9.10;;;;;;;;;;6185213;23;20009;-59
2021/05/10 10:56:40;;;;;;;13.73;10.03;;;;;;;;;;6185605;23;20054;-59
2021/05/10 10:59:25;;;;;;;15.07;9.90;;;;;;;;;;6185366;23;20005;-59
2021/05/10 11:01:52;;;;;;;13.18;10.18;;;;;;;;;;6185355;23;20009;-59
2021/05/10 11:04:31;;;;;;;16.43;11.00;;;;;;;;;;6185478;23;20005;-59
2021/05/10 11:06:58;;;;;;;14.47;11.23;;;;;;;;;;6185208;23;20005;-59
2021/05/10 11:09:43;;;;;;;12.23;10.37;;;;;;;;;;6185267;23;20012;-59
2021/05/10 11:12:12;;;;;;;15.45;11.95;;;;;;;;;;6185394;23;20001;-60
2021/05/10 11:14:44;;;;;;;13.80;10.40;;;;;;;;;;6185658;23;20059;-59
2021/05/10 11:17:11;;;;;;;12.27;9.93;;;;;;;;;;6185211;23;20028;-59
2021/05/10 11:19:44;;;;;;;12.10;9.57;;;;;;;;;;6184704;23;20027;-59
2021/05/10 11:22:35;;;;;;;15.83;10.53;;;;;;;;;;6185051;23;20013;-59
2021/05/10 11:25:19;;;;;;;11.63;9.00;;;;;;;;;;6185434;23;20005;-59
2021/05/10 11:27:46;;;;;;;15.20;11.10;;;;;;;;;;6185337;23;20080;-59
2021/05/10 11:30:13;;;;;;;16.00;10.87;;;;;;;;;;6185053;23;20389;-59
2021/05/10 11:32:52;;;;;;;15.83;10.77;;;;;;;;;;6185269;23;20077;-59
2021/05/10 11:35:26;;;;;;;14.83;10.93;;;;;;;;;;6185083;23;20020;-59
2021/05/10 11:37:59;;;;;;;12.57;10.00;;;;;;;;;;6185164;23;20373;-59
2021/05/10 11:40:26;;;;;;;10.73;8.70;;;;;;;;;;6185202;23;20013;-59
2021/05/10 11:42:52;;;;;;;10.60;8.40;;;;;;;;;;6185246;23;20001;-59
2021/05/10 11:45:19;;;;;;;12.27;8.93;;;;;;;;;;6185061;23;20092;-59
2021/05/10 11:47:50;;;;;;;14.03;11.33;;;;;;;;;;6185078;23;20012;-59
2021/05/10 11:50:17;;;;;;;15.30;10.60;;;;;;;;;;6185087;23;20017;-59
2021/05/10 11:52:45;;;;;;;10.87;9.00;;;;;;;;;;6185090;23;20008;-59
2021/05/10 11:55:13;;;;;;;12.40;9.30;;;;;;;;;;6185553;23;20024;-59
2021/05/10 11:57:42;;;;;;;11.83;9.30;;;;;;;;;;6184946;23;20328;-59
2021/05/10 12:00:13;;;;;;;18.60;10.90;;;;;;;;;;6184903;23;20356;-59
2021/05/10 12:02:44;;;;;;;13.97;11.60;;;;;;;;;;6184958;23;20016;-59
2021/05/10 12:05:14;;;;;;;15.17;11.73;;;;;;;;;;6185282;23;20020;-59
2021/05/10 12:07:42;;;;;;;15.03;11.97;;;;;;;;;;6186938;23;20360;-59
2021/05/10 12:10:10;;;;;;;22.53;12.80;;;;;;;;;;6187016;23;20009;-59
2021/05/10 12:12:44;;;;;;;34.43;23.73;;;;;;;;;;6186847;23;20052;-59
2021/05/10 12:15:28;;;;;;;20.45;15.82;;;;;;;;;;6187020;23;20008;-59
2021/05/10 12:17:55;;;;;;;24.57;18.10;;;;;;;;;;6188039;23;20091;-59
2021/05/10 12:20:24;;;;;;;25.40;14.53;;;;;;;;;;6186750;23;20034;-63
2021/05/10 12:22:54;;;;;;;18.03;13.17;;;;;;;;;;6186790;23;20048;-63
2021/05/10 12:25:25;;;;;;;18.13;12.80;;;;;;;;;;6186874;23;20001;-63
2021/05/10 12:28:05;;;;;;;18.07;13.37;;;;;;;;;;6187213;23;20059;-63
2021/05/10 12:30:33;;;;;;;18.47;11.60;;;;;;;;;;6186660;23;20429;-62
2021/05/10 12:33:01;;;;;;;13.33;10.43;;;;;;;;;;6186672;23;20001;-62
2021/05/10 12:35:30;;;;;;;18.23;11.80;;;;;;;;;;6186671;23;20322;-63
2021/05/10 12:37:58;;;;;;;14.73;10.87;;;;;;;;;;6186795;23;20503;-63
2021/05/10 12:40:26;;;;;;;15.37;11.53;;;;;;;;;;6186551;23;20012;-63
2021/05/10 12:43:08;;;;;;;15.20;11.80;;;;;;;;;;6186627;23;20063;-63
2021/05/10 12:45:36;;;;;;;19.83;13.10;;;;;;;;;;6186623;23;20080;-63
2021/05/10 12:48:34;;;;;;;19.40;11.77;;;;;;;;;;6186531;23;20080;-63
2021/05/10 12:51:06;;;;;;;14.90;11.70;;;;;;;;;;6157994;23;20009;-62
2021/05/10 12:53:41;;;;;;;17.77;11.73;;;;;;;;;;6186939;23;20176;-62
2021/05/10 12:56:10;;;;;;;20.75;13.45;;;;;;;;;;6186650;23;20028;-63
2021/05/10 12:58:37;;;;;;;15.53;12.80;;;;;;;;;;6186515;23;19997;-63
2021/05/10 13:01:23;;;;;;;23.07;13.63;;;;;;;;;;6186399;23;20067;-63
2021/05/10 13:04:00;;;;;;;29.10;14.33;;;;;;;;;;6186532;23;20004;-63
2021/05/10 13:06:27;;;;;;;17.47;12.47;;;;;;;;;;6186339;23;20436;-63
2021/05/10 13:08:55;;;;;;;23.20;14.77;;;;;;;;;;6186334;23;20008;-63
2021/05/10 13:11:23;;;;;;;20.10;13.90;;;;;;;;;;6186254;23;20448;-63
2021/05/10 13:13:55;;;;;;;29.87;13.83;;;;;;;;;;6186318;23;20002;-63
2021/05/10 13:17:04;;;;;;;18.67;13.73;;;;;;;;;;6186226;23;20086;-63
2021/05/10 13:19:53;;;;;;;20.23;13.13;;;;;;;;;;6187666;23;20025;-63
2021/05/10 13:22:58;;;;;;;16.90;13.33;;;;;;;;;;6186292;23;20040;-63
2021/05/10 13:31:35;;;;;;;21.33;12.93;;;;;;;;;;6186250;23;20013;-63
2021/05/10 13:36:38;;;;;;;22.60;14.27;;;;;;;;;;6186803;23;20087;-63
2021/05/10 13:39:06;;;;;;;17.20;14.00;;;;;;;;;;6186022;23;20009;-63
2021/05/10 13:41:39;;;;;;;15.93;11.80;;;;;;;;;;6186139;23;20059;-63
2021/05/10 13:44:12;;;;;;;13.63;10.93;;;;;;;;;;6186135;23;19997;-63
2021/05/10 13:46:39;;;;;;;16.60;12.03;;;;;;;;;;6186163;23;20421;-63
2021/05/10 13:49:06;;;;;;;17.20;13.10;;;;;;;;;;6185984;23;20005;-63
2021/05/10 13:51:34;;;;;;;27.80;16.60;;;;;;;;;;6185991;23;20328;-64
2021/05/10 13:54:00;;;;;;;20.30;14.87;;;;;;;;;;6185960;23;20380;-64
2021/05/10 13:56:28;;;;;;;20.63;15.47;;;;;;;;;;6185931;23;20001;-63
2021/05/10 13:58:56;;;;;;;21.67;14.90;;;;;;;;;;6185883;23;20371;-64
2021/05/10 14:01:23;;;;;;;22.93;15.53;;;;;;;;;;6185707;23;20013;-64
2021/05/10 14:03:50;;;;;;;18.87;14.87;;;;;;;;;;6185763;23;20429;-63
2021/05/10 14:06:17;;;;;;;19.93;14.23;;;;;;;;;;6186104;23;20001;-64
2021/05/10 14:08:44;;;;;;;15.77;12.63;;;;;;;;;;6185905;23;20001;-63
2021/05/10 14:11:10;;;;;;;28.33;16.83;;;;;;;;;;6186027;23;20062;-63
2021/05/10 14:13:37;;;;;;;16.97;14.60;;;;;;;;;;6185924;23;20456;-63
2021/05/10 14:16:05;;;;;;;16.13;13.37;;;;;;;;;;6185839;23;19997;-64
2021/05/10 14:18:36;;;;;;;15.07;11.43;;;;;;;;;;6186966;23;20021;-64
2021/05/10 14:23:48;;;;;;;;;;;;;;;;;;6186413;23;20015;-64
2021/05/10 14:26:15;;;;;;;16.63;11.93;;;;;;;;;;6185607;23;20279;-64
2021/05/10 14:28:42;;;;;;;16.70;14.67;;;;;;;;;;6185502;23;20008;-64
2021/05/10 14:31:12;;;;;;;15.00;13.30;;;;;;;;;;6185559;23;20005;-64
2021/05/10 14:33:39;;;;;;;16.47;13.03;;;;;;;;;;6185752;23;20090;-64
2021/05/10 14:36:06;;;;;;;17.57;13.23;;;;;;;;;;6185646;23;20064;-64
2021/05/10 14:38:34;;;;;;;17.63;13.83;;;;;;;;;;6185511;23;20075;-64
2021/05/10 14:41:04;;;;;;;17.00;13.27;;;;;;;;;;6185361;23;20009;-64
2021/05/10 14:43:31;;;;;;;15.13;12.53;;;;;;;;;;6185379;23;20001;-64
2021/05/10 14:45:58;;;;;;;15.20;12.43;;;;;;;;;;6185470;23;20463;-64
2021/05/10 14:48:25;;;;;;;14.70;11.00;;;;;;;;;;6185403;23;20037;-64
2021/05/10 14:50:52;;;;;;;12.77;10.53;;;;;;;;;;6185326;23;20362;-64
2021/05/10 14:53:19;;;;;;;11.27;9.60;;;;;;;;;;6185585;23;20005;-64
2021/05/10 14:55:47;;;;;;;12.83;10.00;;;;;;;;;;6185347;23;20109;-64